Portada
METAR-TAF:

METAR-TAF

Aeropuertos :

Aeropuerto Internacional de Taba

Taba, Egipto

latitud: 29-35-57N, longitud: 034-46-36E, altitud: 749 m

METAR: falta

Hora: 06:13 (04:13 UTC)

Pronóstico

El informe se hizo hace 5 horas y 13 minutos, a las 23:00 UTC
Pronóstico válido del 28 a las 00 UTC al 01 a las 06 UTC
Viento 12 kt del norte-noroeste
Visibilidad 10 km o más
Nubes dispersas a una altura de 2500 ft
Temporalmente
del 28 a las 00 UTC al 28 a las 06 UTC
Visibilidad: 6000 m
Cielo nuboso a una altura de 2500 ft
lluvia ligera

TAF: HETB 272300Z 2800/0106 34012KT 9999 SCT025 TEMPO 2800/2806 6000 -RA BKN025

Observaciones y pronósticos meteorológicos de más de 4000 aeropuertos (mensajes METAR y TAF).

Los puntos amarillos y rojos representan las estaciones disponibles.

Ponga el ratón en el punto deseado para ver el nombre de la estación.

Haga clic para ver las observaciones y los pronósticos meteorológicos.

Para cambiar el mapa : haga clic en los botones verdes con una cruz de color negro para hacer un zoom, en el botón verde con un guión para alejar o en las flechas verdes para mapas adyacentes.


METAR-TAF: